Terminal Aerodrome Forecast
Issued by NWS

Home | Current Version | Previous Version | Text Only | Print | Product List | Glossary On
Versions: 1 2 3 4 5 6 7 8 9 10 11 12 13 14 15 16 17 18 19 20 21 22 23 24
000
FTUS43 KSGF 201735
TAFJLN
TAF
KJLN 201735Z 2018/2118 32012G20KT 5SM -RA OVC006
      TEMPO 2019/2023 2SM -RA BR OVC005
     FM202300 36010G18KT 3SM -FZRA BR OVC006
     FM210400 02010KT 6SM BR VCSH OVC008
     FM211300 03010G18KT P6SM OVC015=

USA.gov is the U.S. government's official web portal to all federal, state and local government web resources and services.